CST,Max TemperatureF,Mean TemperatureF,Min TemperatureF,Max Dew PointF,MeanDew PointF,Min DewpointF,Max Humidity, Mean Humidity, Min Humidity, Max Sea Level PressureIn, Mean Sea Level PressureIn, Min Sea Level PressureIn, Max VisibilityMiles, Mean VisibilityMiles, Min VisibilityMiles, Max Wind SpeedMPH, Mean Wind SpeedMPH, Max Gust SpeedMPH,PrecipitationIn, CloudCover, Events, WindDirDegrees
2012-12-1,53,45,37,52,39,34,94,87,81,30.21,29.98,29.80,5,3,2,18,9,24,0.00,8,,153
2012-12-2,55,50,46,52,43,37,88,80,71,30.00,29.90,29.80,5,4,2,13,8,18,0.00,8,,293
2012-12-3,57,50,42,55,46,39,100,89,66,29.98,29.79,29.67,10,2,0,24,13,31,0.00,7,,169
2012-12-4,48,37,26,39,24,10,71,53,40,30.30,30.04,29.84,10,10,9,24,16,32,0.00,0,,278
2012-12-5,35,28,21,28,19,12,75,64,56,30.44,30.35,30.20,10,10,10,15,8,20,0.00,4,,163
2012-12-6,42,38,35,34,31,28,81,74,61,30.19,30.00,29.83,10,10,8,23,12,33,0.00,6,,176
2012-12-7,37,35,33,27,26,25,75,70,60,30.00,29.97,29.93,10,10,10,12,8,,0.00,4,,346
2012-12-8,37,32,26,27,23,21,86,72,52,30.17,30.09,30.02,10,10,10,12,7,,0.00,3,,357
2012-12-9,35,32,28,32,27,21,93,77,60,30.16,30.04,29.83,10,6,1,20,12,25,0.19,8,,83
2012-12-10,28,26,24,23,21,19,86,76,69,29.90,29.81,29.69,10,10,7,10,2,18,0.00,7,,299
2012-12-11,28,26,23,21,19,14,86,73,59,30.06,29.93,29.87,10,10,8,17,7,24,0.00,7,,224
2012-12-12,39,28,17,25,21,14,93,69,52,30.20,30.14,30.06,10,9,4,21,6,28,0.00,3,,195
2012-12-13,42,35,28,25,22,19,75,58,42,30.16,30.10,30.03,10,10,10,15,10,20,0.00,0,,202
2012-12-14,39,32,24,36,27,19,93,80,65,30.22,30.15,30.05,10,9,4,13,3,,0.00,0,,60
2012-12-15,42,40,39,41,37,34,93,86,76,30.04,29.76,29.52,8,5,0,20,12,26,0.28,6,,125
2012-12-16,44,40,37,43,37,30,93,85,75,29.67,29.57,29.51,10,6,0,15,5,22,0.02,8,,262
2012-12-17,37,34,30,30,26,21,81,75,69,29.73,29.69,29.67,10,9,5,13,8,,0.00,8,,277
2012-12-18,33,28,24,28,25,19,93,79,69,29.80,29.72,29.67,10,9,5,8,4,,0.00,7,,13
2012-12-19,33,28,24,27,24,19,86,78,69,30.09,29.99,29.81,10,10,7,9,5,,0.00,5,,279
2012-12-20,35,32,30,32,30,27,93,85,75,29.95,29.48,29.23,8,4,1,32,13,46,0.92,8,,22
2012-12-21,32,26,19,28,20,12,87,73,64,30.11,29.85,29.43,10,8,2,29,23,40,0.04,6,,314
2012-12-22,26,20,15,14,11,9,79,68,51,30.14,30.05,29.91,10,10,10,16,11,23,0.00,0,,258
2012-12-23,24,18,12,16,13,9,86,73,64,30.06,30.03,29.91,10,10,10,13,6,,0.00,2,,315
2012-12-24,24,20,15,19,16,12,86,81,74,30.12,29.99,29.94,10,9,1,16,7,,0.02,8,,325
2012-12-25,26,20,14,19,14,7,80,73,63,30.36,30.29,30.12,10,10,3,14,10,20,0.00,7,,331
2012-12-26,30,27,24,19,19,18,80,71,60,30.30,30.18,30.12,10,10,10,16,10,25,0.00,8,,1
2012-12-27,26,24,23,19,17,16,80,73,69,30.21,30.17,30.12,10,10,10,16,12,22,0.00,8,,334
2012-12-28,32,28,23,28,23,16,100,85,74,30.14,30.03,29.88,10,6,0,16,8,20,0.10,8,,32
2012-12-29,32,26,19,28,22,14,93,82,74,30.12,29.96,29.87,10,7,1,16,10,21,0.03,8,,333
2012-12-30,28,20,14,19,11,9,86,74,63,30.24,30.14,29.92,10,9,3,13,9,22,0.00,4,,229
2012-12-31,33,20,6,21,13,0,80,69,58,30.14,30.00,29.89,10,9,5,17,12,24,0.00,3,,277